METAR UND TAF INFORMATION
OAKB 241250Z 36016KT 9999 FEW100 FEW150 31/M08 Q1011 RMK A2987 BLU BLU

 FLUGHAFENKARTE

 RUNWAY INFORMATION
Runway 11 Runway length 11483 ft Runway width 164 ft
Runway elevation 5869 ft Runway displaced threshold 80 ft Runway heading 107
Runway 29 Runway length 11483 ft Runway width 164 ft
Runway elevation 5872 ft Runway displaced threshold 2325 ft Runway heading 287

 AIRPORT FREQUENCIES
Type APP Name APP/DEP Frequency 131.6 MHZ
Type GND Name GND Frequency 120.3 MHZ
Type TWR Name TWR Frequency 129.4 MHZ

 AIRPORT NEAR NAVIGATION AIDS
Type VOR-DME Name Kabul Frequency 112000 KHZ
Type TACAN Name Kabul Frequency 133800 KHZ
Type TACAN Name Kabul Frequency 133800 KHZ